Sherburn, MN (56171)

3:17 PM CST on February 21, 2018 (GMT -0600)
KC0NKL - Elm Creek Township | | Change Station
Active Advisory: Winter Weather Advisory

Elev 1322 ft 43.68 °N, 94.79 °W | Updated 16 seconds ago

Clear
Clear
18.0 °F
Feels Like 18 °F
N
0.0
Wind Variable Wind from NNE
Gusts 0.0 mph

Today
High -- | Low -- °F
--% Chance of Precip.
Yesterday
High -- | Low -- °F
Precip. -- in
Pressure 30.58 in
Visibility 10.0 miles
Clouds Clear
Windchill 18 °F
Dew Point -18 °F
Humidity 18%
Rainfall 0.00 in
Snow Depth Not available.
7:08 AM 5:57 PM
Waxing Crescent, 34% visible
METAR KMJQ 212115Z AUTO 25004KT 10SM CLR M08/M16 A3058 RMK AO2
Pressure 30.58 in
Visibility 10.0 miles
Clouds Clear
Windchill 18 °F
Dew Point -18 °F
Humidity 18%
Rainfall 0.00 in
Snow Depth Not available.
7:08 AM 5:57 PM
Waxing Crescent, 34% visible
METAR KMJQ 212115Z AUTO 25004KT 10SM CLR M08/M16 A3058 RMK AO2

Get Your Daily Forecast Email!

Thanks for signing up!

Be on the lookout for a verification email in your inbox.

You'll start receiving severe weather alerts in your inbox..

×

10-Day Weather Forecast

Almanac

Astronomy

Feb. 21, 2018 Rise Set
Actual Time
Civil Twilight
Nautical Twilight
Astronomical Twilight
Moon
Length of Visible Light
Length of Day
Tomorrow will be .
, % of the Moon is Illuminated

Today's Extremes

State Highs State Lows

Community

WunderPhotos

Category 6

Welcome to Category 6. This is the collective home for Weather Underground's featured writeups by Dr. Jeff Masters (right), Bob Henson (left), Chris Burt, and other regular contributors.

Nearby

Air Quality

  Air Quality AQ Index Pollutant
Not available.

Snow Depth

Station Depth Elevation

Earthquake Activity

City Distance Mag. Time & Date
Minimum magnitude displayed is 2.5.

Coastal Water Temperatures

Place Temperature

Stations

Nearby Weather Stations

Station Location Temp. Windchill Dew Point Humidity Wind Precip. Elev Updated Type
                   

Watches & Warnings

Winter Weather Advisory
Issued: 2:59 PM CST Feb. 21, 2018 – National Weather Service

... Winter Weather Advisory in effect from 9 am Thursday to
midnight CST Thursday night...

* what... snow, mixed with freezing drizzle or sleet at times. The
ice will result in difficult travel conditions. Total snow
accumulations of 1 to 3 inches and ice accumulations of less
than one tenth of an inch are expected.

* Where... portions of south central and southwest Minnesota.

* When... from 9 am Thursday to midnight CST Thursday night.

* Additional details... be prepared for reduced visibilities at
times.

Precautionary/preparedness actions...

A Winter Weather Advisory means that periods of snow, sleet or
freezing rain will cause travel difficulties. Be prepared for
slippery roads and limited visibilities, and use caution while
driving. The latest Road conditions for Minnesota can be found at
511mn.Org and for Wisconsin at 511wi.Gov, or by calling 5 1 1 in
either state.